sensor_id;sensor_type;location;lat;lon;timestamp;pressure;altitude;pressure_sealevel;temperature;humidity
68380;BME280;57711;53.196;19.638;2023-01-31T00:01:35;98809.45;;;2.32;75.99
68380;BME280;57711;53.196;19.638;2023-01-31T00:04:05;98821.09;;;2.33;75.91
68380;BME280;57711;53.196;19.638;2023-01-31T00:06:39;98818.86;;;2.34;75.97
68380;BME280;57711;53.196;19.638;2023-01-31T00:09:08;98822.56;;;2.35;75.88
68380;BME280;57711;53.196;19.638;2023-01-31T00:11:36;98824.71;;;2.37;75.94
68380;BME280;57711;53.196;19.638;2023-01-31T00:14:05;98826.97;;;2.38;75.87
68380;BME280;57711;53.196;19.638;2023-01-31T00:16:33;98831.16;;;2.39;75.89
68380;BME280;57711;53.196;19.638;2023-01-31T00:19:01;98835.30;;;2.38;75.88
68380;BME280;57711;53.196;19.638;2023-01-31T00:21:30;98834.28;;;2.38;75.88
68380;BME280;57711;53.196;19.638;2023-01-31T00:23:57;98835.77;;;2.39;75.92
68380;BME280;57711;53.196;19.638;2023-01-31T00:26:30;98839.10;;;2.40;75.89
68380;BME280;57711;53.196;19.638;2023-01-31T00:29:01;98840.29;;;2.40;75.95
68380;BME280;57711;53.196;19.638;2023-01-31T00:31:29;98841.89;;;2.40;75.97
68380;BME280;57711;53.196;19.638;2023-01-31T00:33:57;98844.20;;;2.41;75.88
68380;BME280;57711;53.196;19.638;2023-01-31T00:36:30;98847.73;;;2.41;75.93
68380;BME280;57711;53.196;19.638;2023-01-31T00:38:59;98848.77;;;2.41;75.95
68380;BME280;57711;53.196;19.638;2023-01-31T00:41:28;98859.77;;;2.42;75.84
68380;BME280;57711;53.196;19.638;2023-01-31T00:43:56;98872.47;;;2.42;75.76
68380;BME280;57711;53.196;19.638;2023-01-31T00:46:24;98871.69;;;2.40;75.87
68380;BME280;57711;53.196;19.638;2023-01-31T00:48:52;98878.72;;;2.40;75.91
68380;BME280;57711;53.196;19.638;2023-01-31T00:51:19;98884.09;;;2.39;75.95
68380;BME280;57711;53.196;19.638;2023-01-31T00:53:48;98889.17;;;2.38;75.84
68380;BME280;57711;53.196;19.638;2023-01-31T00:56:20;98891.77;;;2.37;75.71
68380;BME280;57711;53.196;19.638;2023-01-31T00:58:52;98896.41;;;2.32;75.72
68380;BME280;57711;53.196;19.638;2023-01-31T01:01:22;98896.94;;;2.28;75.63
68380;BME280;57711;53.196;19.638;2023-01-31T01:03:50;98901.70;;;2.23;75.71
68380;BME280;57711;53.196;19.638;2023-01-31T01:06:18;98902.70;;;2.22;75.81
68380;BME280;57711;53.196;19.638;2023-01-31T01:08:46;98906.41;;;2.23;75.77
68380;BME280;57711;53.196;19.638;2023-01-31T01:11:27;98905.72;;;2.25;75.74
68380;BME280;57711;53.196;19.638;2023-01-31T01:13:56;98906.52;;;2.29;75.82
68380;BME280;57711;53.196;19.638;2023-01-31T01:16:30;98911.25;;;2.30;75.79
68380;BME280;57711;53.196;19.638;2023-01-31T01:19:01;98909.44;;;2.30;75.75
68380;BME280;57711;53.196;19.638;2023-01-31T01:21:31;98912.24;;;2.28;75.72
68380;BME280;57711;53.196;19.638;2023-01-31T01:24:00;98913.51;;;2.25;75.73
68380;BME280;57711;53.196;19.638;2023-01-31T01:26:30;98918.34;;;2.25;75.54
68380;BME280;57711;53.196;19.638;2023-01-31T01:29:00;98923.35;;;2.25;75.62
68380;BME280;57711;53.196;19.638;2023-01-31T01:31:30;98927.16;;;2.24;75.66
68380;BME280;57711;53.196;19.638;2023-01-31T01:34:03;98934.59;;;2.22;75.65
68380;BME280;57711;53.196;19.638;2023-01-31T01:36:33;98940.73;;;2.21;75.71
68380;BME280;57711;53.196;19.638;2023-01-31T01:39:02;98946.55;;;2.22;75.74
68380;BME280;57711;53.196;19.638;2023-01-31T01:41:30;98952.95;;;2.23;75.63
68380;BME280;57711;53.196;19.638;2023-01-31T01:44:01;98960.43;;;2.23;75.65
68380;BME280;57711;53.196;19.638;2023-01-31T01:49:11;98967.09;;;2.22;75.71
68380;BME280;57711;53.196;19.638;2023-01-31T01:51:41;98976.34;;;2.22;75.67
68380;BME280;57711;53.196;19.638;2023-01-31T01:54:14;98979.58;;;2.22;75.70
68380;BME280;57711;53.196;19.638;2023-01-31T01:56:46;98982.96;;;2.22;75.64
68380;BME280;57711;53.196;19.638;2023-01-31T01:59:21;98981.21;;;2.22;75.67
68380;BME280;57711;53.196;19.638;2023-01-31T02:01:51;98982.25;;;2.22;75.63
68380;BME280;57711;53.196;19.638;2023-01-31T02:04:24;98988.05;;;2.23;75.76
68380;BME280;57711;53.196;19.638;2023-01-31T02:06:54;98992.17;;;2.25;75.74
68380;BME280;57711;53.196;19.638;2023-01-31T02:09:32;98994.67;;;2.28;75.73
68380;BME280;57711;53.196;19.638;2023-01-31T02:12:04;99002.34;;;2.28;75.70
68380;BME280;57711;53.196;19.638;2023-01-31T02:14:31;99010.89;;;2.30;75.57
68380;BME280;57711;53.196;19.638;2023-01-31T02:16:59;99008.17;;;2.31;75.64
68380;BME280;57711;53.196;19.638;2023-01-31T02:19:39;99011.24;;;2.30;75.70
68380;BME280;57711;53.196;19.638;2023-01-31T02:27:55;99022.30;;;2.30;75.58
68380;BME280;57711;53.196;19.638;2023-01-31T02:33:40;99037.19;;;2.36;75.56
68380;BME280;57711;53.196;19.638;2023-01-31T02:36:22;99034.27;;;2.37;75.69
68380;BME280;57711;53.196;19.638;2023-01-31T02:44:27;99044.81;;;2.37;75.48
68380;BME280;57711;53.196;19.638;2023-01-31T02:47:54;99046.58;;;2.37;75.55
68380;BME280;57711;53.196;19.638;2023-01-31T02:53:34;99053.88;;;2.37;75.53
68380;BME280;57711;53.196;19.638;2023-01-31T02:56:06;99058.12;;;2.35;75.66
68380;BME280;57711;53.196;19.638;2023-01-31T02:59:01;99062.70;;;2.34;75.60
68380;BME280;57711;53.196;19.638;2023-01-31T03:01:31;99067.42;;;2.35;75.54
68380;BME280;57711;53.196;19.638;2023-01-31T03:04:06;99066.80;;;2.34;75.61
68380;BME280;57711;53.196;19.638;2023-01-31T03:09:15;99075.73;;;2.31;75.59
68380;BME280;57711;53.196;19.638;2023-01-31T03:17:56;99089.70;;;2.31;75.59
68380;BME280;57711;53.196;19.638;2023-01-31T03:20:37;99100.89;;;2.34;75.57
68380;BME280;57711;53.196;19.638;2023-01-31T03:23:15;99103.29;;;2.35;75.59
68380;BME280;57711;53.196;19.638;2023-01-31T03:25:46;99106.98;;;2.33;75.62
68380;BME280;57711;53.196;19.638;2023-01-31T03:28:20;99113.79;;;2.31;75.52
68380;BME280;57711;53.196;19.638;2023-01-31T03:33:29;99125.81;;;2.32;75.45
68380;BME280;57711;53.196;19.638;2023-01-31T03:41:56;99136.34;;;2.34;75.54
68380;BME280;57711;53.196;19.638;2023-01-31T03:47:17;99133.84;;;2.36;75.54
68380;BME280;57711;53.196;19.638;2023-01-31T03:49:50;99140.84;;;2.39;75.56
68380;BME280;57711;53.196;19.638;2023-01-31T03:52:24;99148.80;;;2.39;75.50
68380;BME280;57711;53.196;19.638;2023-01-31T03:54:57;99157.15;;;2.40;75.53
68380;BME280;57711;53.196;19.638;2023-01-31T03:57:32;99162.16;;;2.37;75.48
68380;BME280;57711;53.196;19.638;2023-01-31T04:00:05;99167.55;;;2.37;75.41
68380;BME280;57711;53.196;19.638;2023-01-31T04:02:41;99168.75;;;2.38;75.44
68380;BME280;57711;53.196;19.638;2023-01-31T04:05:14;99168.78;;;2.37;75.40
68380;BME280;57711;53.196;19.638;2023-01-31T04:07:46;99175.40;;;2.37;75.47
68380;BME280;57711;53.196;19.638;2023-01-31T04:10:19;99177.95;;;2.36;75.50
68380;BME280;57711;53.196;19.638;2023-01-31T04:12:47;99184.83;;;2.37;75.47
68380;BME280;57711;53.196;19.638;2023-01-31T04:15:14;99190.38;;;2.39;75.44
68380;BME280;57711;53.196;19.638;2023-01-31T04:17:41;99192.77;;;2.41;75.37
68380;BME280;57711;53.196;19.638;2023-01-31T04:20:09;99195.70;;;2.40;75.42
68380;BME280;57711;53.196;19.638;2023-01-31T04:22:37;99193.38;;;2.40;75.44
68380;BME280;57711;53.196;19.638;2023-01-31T04:25:05;99195.70;;;2.39;75.51
68380;BME280;57711;53.196;19.638;2023-01-31T04:27:33;99199.98;;;2.40;75.43
68380;BME280;57711;53.196;19.638;2023-01-31T04:30:00;99201.39;;;2.40;75.38
68380;BME280;57711;53.196;19.638;2023-01-31T04:32:28;99200.98;;;2.41;75.37
68380;BME280;57711;53.196;19.638;2023-01-31T04:34:55;99210.69;;;2.42;75.39
68380;BME280;57711;53.196;19.638;2023-01-31T04:37:22;99213.77;;;2.41;75.31
68380;BME280;57711;53.196;19.638;2023-01-31T04:39:49;99216.81;;;2.41;75.42
68380;BME280;57711;53.196;19.638;2023-01-31T04:42:16;99221.70;;;2.40;75.28
68380;BME280;57711;53.196;19.638;2023-01-31T04:44:44;99222.59;;;2.38;75.36
68380;BME280;57711;53.196;19.638;2023-01-31T04:47:11;99228.44;;;2.38;75.31
68380;BME280;57711;53.196;19.638;2023-01-31T04:49:38;99227.70;;;2.41;75.51
68380;BME280;57711;53.196;19.638;2023-01-31T04:52:05;99231.38;;;2.42;75.34
68380;BME280;57711;53.196;19.638;2023-01-31T04:54:33;99236.05;;;2.42;75.29
68380;BME280;57711;53.196;19.638;2023-01-31T04:57:01;99231.81;;;2.41;75.36
68380;BME280;57711;53.196;19.638;2023-01-31T04:59:28;99242.02;;;2.40;75.37
68380;BME280;57711;53.196;19.638;2023-01-31T05:01:55;99248.61;;;2.41;75.30
68380;BME280;57711;53.196;19.638;2023-01-31T05:04:22;99252.84;;;2.41;75.26
68380;BME280;57711;53.196;19.638;2023-01-31T05:06:49;99254.77;;;2.42;75.33
68380;BME280;57711;53.196;19.638;2023-01-31T05:09:17;99258.00;;;2.42;75.26
68380;BME280;57711;53.196;19.638;2023-01-31T05:11:44;99260.11;;;2.42;75.21
68380;BME280;57711;53.196;19.638;2023-01-31T05:14:11;99263.22;;;2.41;75.31
68380;BME280;57711;53.196;19.638;2023-01-31T05:16:39;99269.21;;;2.40;75.28
68380;BME280;57711;53.196;19.638;2023-01-31T05:19:07;99272.48;;;2.39;75.28
68380;BME280;57711;53.196;19.638;2023-01-31T05:21:34;99276.35;;;2.40;75.31
68380;BME280;57711;53.196;19.638;2023-01-31T05:24:21;99284.77;;;2.41;75.30
68380;BME280;57711;53.196;19.638;2023-01-31T05:26:49;99286.17;;;2.42;75.21
68380;BME280;57711;53.196;19.638;2023-01-31T05:29:19;99290.20;;;2.43;75.22
68380;BME280;57711;53.196;19.638;2023-01-31T05:31:50;99294.20;;;2.42;75.22
68380;BME280;57711;53.196;19.638;2023-01-31T05:34:18;99296.22;;;2.41;75.22
68380;BME280;57711;53.196;19.638;2023-01-31T05:36:45;99299.73;;;2.39;75.21
68380;BME280;57711;53.196;19.638;2023-01-31T05:39:12;99303.39;;;2.38;75.12
68380;BME280;57711;53.196;19.638;2023-01-31T05:41:40;99305.17;;;2.38;75.17
68380;BME280;57711;53.196;19.638;2023-01-31T05:44:07;99306.04;;;2.38;75.15
68380;BME280;57711;53.196;19.638;2023-01-31T05:46:35;99307.17;;;2.38;75.10
68380;BME280;57711;53.196;19.638;2023-01-31T05:49:03;99309.54;;;2.37;75.20
68380;BME280;57711;53.196;19.638;2023-01-31T05:51:30;99313.68;;;2.36;75.19
68380;BME280;57711;53.196;19.638;2023-01-31T05:53:58;99315.98;;;2.37;75.29
68380;BME280;57711;53.196;19.638;2023-01-31T05:56:25;99323.77;;;2.37;75.21
68380;BME280;57711;53.196;19.638;2023-01-31T05:58:52;99325.81;;;2.39;75.11
68380;BME280;57711;53.196;19.638;2023-01-31T06:01:22;99329.05;;;2.41;75.08
68380;BME280;57711;53.196;19.638;2023-01-31T06:03:49;99335.75;;;2.42;75.14
68380;BME280;57711;53.196;19.638;2023-01-31T06:06:17;99339.96;;;2.41;75.07
68380;BME280;57711;53.196;19.638;2023-01-31T06:08:44;99346.81;;;2.39;75.11
68380;BME280;57711;53.196;19.638;2023-01-31T06:11:12;99351.86;;;2.39;75.06
68380;BME280;57711;53.196;19.638;2023-01-31T06:13:41;99361.61;;;2.40;75.04
68380;BME280;57711;53.196;19.638;2023-01-31T06:16:11;99364.86;;;2.42;75.02
68380;BME280;57711;53.196;19.638;2023-01-31T06:18:38;99371.45;;;2.44;75.03
68380;BME280;57711;53.196;19.638;2023-01-31T06:21:06;99377.92;;;2.46;74.99
68380;BME280;57711;53.196;19.638;2023-01-31T06:23:33;99387.17;;;2.47;75.12
68380;BME280;57711;53.196;19.638;2023-01-31T06:26:00;99390.65;;;2.45;75.04
68380;BME280;57711;53.196;19.638;2023-01-31T06:28:28;99397.73;;;2.43;75.06
68380;BME280;57711;53.196;19.638;2023-01-31T06:30:55;99400.23;;;2.43;74.96
68380;BME280;57711;53.196;19.638;2023-01-31T06:33:22;99400.48;;;2.42;74.86
68380;BME280;57711;53.196;19.638;2023-01-31T06:36:04;99402.80;;;2.42;75.00
68380;BME280;57711;53.196;19.638;2023-01-31T06:38:31;99402.97;;;2.42;74.95
68380;BME280;57711;53.196;19.638;2023-01-31T06:40:58;99402.08;;;2.43;74.99
68380;BME280;57711;53.196;19.638;2023-01-31T06:43:25;99406.05;;;2.42;74.98
68380;BME280;57711;53.196;19.638;2023-01-31T06:45:53;99409.90;;;2.40;75.11
68380;BME280;57711;53.196;19.638;2023-01-31T06:48:20;99410.48;;;2.40;75.06
68380;BME280;57711;53.196;19.638;2023-01-31T06:50:47;99414.12;;;2.41;75.03
68380;BME280;57711;53.196;19.638;2023-01-31T06:53:15;99418.64;;;2.43;75.04
68380;BME280;57711;53.196;19.638;2023-01-31T06:55:43;99421.34;;;2.45;74.88
68380;BME280;57711;53.196;19.638;2023-01-31T06:58:10;99426.23;;;2.47;74.96
68380;BME280;57711;53.196;19.638;2023-01-31T07:00:37;99429.61;;;2.47;74.83
68380;BME280;57711;53.196;19.638;2023-01-31T07:03:04;99427.90;;;2.46;74.93
68380;BME280;57711;53.196;19.638;2023-01-31T07:05:31;99426.80;;;2.44;74.84
68380;BME280;57711;53.196;19.638;2023-01-31T07:07:59;99428.29;;;2.43;74.96
68380;BME280;57711;53.196;19.638;2023-01-31T07:10:26;99431.21;;;2.42;75.00
68380;BME280;57711;53.196;19.638;2023-01-31T07:12:53;99440.50;;;2.39;74.78
68380;BME280;57711;53.196;19.638;2023-01-31T07:15:21;99449.05;;;2.39;74.88
68380;BME280;57711;53.196;19.638;2023-01-31T07:17:48;99457.27;;;2.39;74.86
68380;BME280;57711;53.196;19.638;2023-01-31T07:20:15;99469.00;;;2.39;74.84
68380;BME280;57711;53.196;19.638;2023-01-31T07:22:42;99479.73;;;2.37;74.76
68380;BME280;57711;53.196;19.638;2023-01-31T07:25:10;99488.23;;;2.35;74.93
68380;BME280;57711;53.196;19.638;2023-01-31T07:27:37;99494.06;;;2.34;74.81
68380;BME280;57711;53.196;19.638;2023-01-31T07:30:05;99497.12;;;2.36;74.93
68380;BME280;57711;53.196;19.638;2023-01-31T07:32:32;99499.17;;;2.37;74.81
68380;BME280;57711;53.196;19.638;2023-01-31T07:35:00;99498.58;;;2.38;74.86
68380;BME280;57711;53.196;19.638;2023-01-31T07:37:27;99502.14;;;2.38;74.80
68380;BME280;57711;53.196;19.638;2023-01-31T07:39:54;99504.35;;;2.37;74.76
68380;BME280;57711;53.196;19.638;2023-01-31T07:42:21;99510.82;;;2.36;74.84
68380;BME280;57711;53.196;19.638;2023-01-31T07:44:49;99510.34;;;2.33;74.75
68380;BME280;57711;53.196;19.638;2023-01-31T07:47:16;99512.63;;;2.30;74.77
68380;BME280;57711;53.196;19.638;2023-01-31T07:49:43;99511.41;;;2.32;74.76
68380;BME280;57711;53.196;19.638;2023-01-31T07:52:10;99514.56;;;2.34;74.81
68380;BME280;57711;53.196;19.638;2023-01-31T07:54:37;99517.89;;;2.34;74.81
68380;BME280;57711;53.196;19.638;2023-01-31T07:57:04;99518.77;;;2.29;74.72
68380;BME280;57711;53.196;19.638;2023-01-31T07:59:32;99519.83;;;2.27;74.77
68380;BME280;57711;53.196;19.638;2023-01-31T08:01:59;99528.95;;;2.26;74.79
68380;BME280;57711;53.196;19.638;2023-01-31T08:04:46;99533.52;;;2.28;74.65
68380;BME280;57711;53.196;19.638;2023-01-31T08:07:13;99538.50;;;2.28;74.69
68380;BME280;57711;53.196;19.638;2023-01-31T08:09:40;99537.89;;;2.29;74.69
68380;BME280;57711;53.196;19.638;2023-01-31T08:12:09;99542.30;;;2.27;74.70
68380;BME280;57711;53.196;19.638;2023-01-31T08:14:36;99540.73;;;2.26;74.77
68380;BME280;57711;53.196;19.638;2023-01-31T08:17:04;99537.70;;;2.26;74.74
68380;BME280;57711;53.196;19.638;2023-01-31T08:19:33;99542.57;;;2.28;74.78
68380;BME280;57711;53.196;19.638;2023-01-31T08:22:02;99544.45;;;2.32;74.80
68380;BME280;57711;53.196;19.638;2023-01-31T08:24:31;99545.12;;;2.35;74.70
68380;BME280;57711;53.196;19.638;2023-01-31T08:26:59;99549.55;;;2.36;74.67
68380;BME280;57711;53.196;19.638;2023-01-31T08:29:26;99548.47;;;2.36;74.75
68380;BME280;57711;53.196;19.638;2023-01-31T08:31:53;99546.14;;;2.36;74.76
68380;BME280;57711;53.196;19.638;2023-01-31T08:34:21;99552.97;;;2.35;74.61
68380;BME280;57711;53.196;19.638;2023-01-31T08:36:49;99554.73;;;2.36;74.51
68380;BME280;57711;53.196;19.638;2023-01-31T08:39:16;99557.45;;;2.38;74.69
68380;BME280;57711;53.196;19.638;2023-01-31T08:41:43;99564.52;;;2.42;74.80
68380;BME280;57711;53.196;19.638;2023-01-31T08:44:11;99563.59;;;2.42;74.69
68380;BME280;57711;53.196;19.638;2023-01-31T08:46:38;99569.16;;;2.41;74.67
68380;BME280;57711;53.196;19.638;2023-01-31T08:49:06;99574.05;;;2.40;74.64
68380;BME280;57711;53.196;19.638;2023-01-31T08:51:34;99577.90;;;2.41;74.72
68380;BME280;57711;53.196;19.638;2023-01-31T08:54:02;99580.49;;;2.42;74.58
68380;BME280;57711;53.196;19.638;2023-01-31T08:56:29;99578.33;;;2.43;74.60
68380;BME280;57711;53.196;19.638;2023-01-31T08:58:57;99579.22;;;2.43;74.56
68380;BME280;57711;53.196;19.638;2023-01-31T09:01:24;99581.05;;;2.43;74.58
68380;BME280;57711;53.196;19.638;2023-01-31T09:03:51;99581.23;;;2.42;74.60
68380;BME280;57711;53.196;19.638;2023-01-31T09:06:24;99587.13;;;2.45;74.60
68380;BME280;57711;53.196;19.638;2023-01-31T09:08:56;99588.49;;;2.46;74.62
68380;BME280;57711;53.196;19.638;2023-01-31T09:11:27;99591.95;;;2.48;74.58
68380;BME280;57711;53.196;19.638;2023-01-31T09:13:55;99593.23;;;2.47;74.65
68380;BME280;57711;53.196;19.638;2023-01-31T09:16:22;99600.70;;;2.47;74.65
68380;BME280;57711;53.196;19.638;2023-01-31T09:18:49;99600.48;;;2.48;74.61
68380;BME280;57711;53.196;19.638;2023-01-31T09:21:19;99602.52;;;2.50;74.68
68380;BME280;57711;53.196;19.638;2023-01-31T09:23:47;99599.91;;;2.54;74.54
68380;BME280;57711;53.196;19.638;2023-01-31T09:26:15;99603.60;;;2.57;74.52
68380;BME280;57711;53.196;19.638;2023-01-31T09:28:43;99609.61;;;2.61;74.58
68380;BME280;57711;53.196;19.638;2023-01-31T09:31:16;99608.21;;;2.63;74.61
68380;BME280;57711;53.196;19.638;2023-01-31T09:33:43;99605.50;;;2.63;74.65
68380;BME280;57711;53.196;19.638;2023-01-31T09:36:14;99606.90;;;2.64;74.67
68380;BME280;57711;53.196;19.638;2023-01-31T09:38:42;99605.59;;;2.65;74.51
68380;BME280;57711;53.196;19.638;2023-01-31T09:41:17;99607.44;;;2.67;74.49
68380;BME280;57711;53.196;19.638;2023-01-31T09:43:59;99607.71;;;2.71;74.49
68380;BME280;57711;53.196;19.638;2023-01-31T09:46:34;99607.99;;;2.72;74.41
68380;BME280;57711;53.196;19.638;2023-01-31T09:49:05;99611.38;;;2.72;74.48
68380;BME280;57711;53.196;19.638;2023-01-31T09:51:34;99608.84;;;2.70;74.38
68380;BME280;57711;53.196;19.638;2023-01-31T09:54:02;99602.13;;;2.69;74.46
68380;BME280;57711;53.196;19.638;2023-01-31T09:56:44;99601.27;;;2.71;74.45
68380;BME280;57711;53.196;19.638;2023-01-31T09:59:22;99600.30;;;2.75;74.56
68380;BME280;57711;53.196;19.638;2023-01-31T10:02:00;99599.02;;;2.78;74.44
68380;BME280;57711;53.196;19.638;2023-01-31T10:07:31;99597.02;;;2.76;74.47
68380;BME280;57711;53.196;19.638;2023-01-31T10:13:02;99593.66;;;2.81;74.51
68380;BME280;57711;53.196;19.638;2023-01-31T10:15:40;99598.24;;;2.84;74.35
68380;BME280;57711;53.196;19.638;2023-01-31T10:18:32;99599.20;;;2.86;74.39
68380;BME280;57711;53.196;19.638;2023-01-31T10:21:05;99601.72;;;2.86;74.52
68380;BME280;57711;53.196;19.638;2023-01-31T10:26:28;99603.46;;;2.89;74.30
68380;BME280;57711;53.196;19.638;2023-01-31T10:29:01;99603.26;;;2.92;74.38
68380;BME280;57711;53.196;19.638;2023-01-31T10:31:40;99603.14;;;2.93;74.36
68380;BME280;57711;53.196;19.638;2023-01-31T10:34:33;99603.29;;;2.94;74.30
68380;BME280;57711;53.196;19.638;2023-01-31T10:37:16;99602.91;;;2.92;74.18
68380;BME280;57711;53.196;19.638;2023-01-31T10:39:52;99603.21;;;2.95;74.32
68380;BME280;57711;53.196;19.638;2023-01-31T10:42:36;99603.24;;;2.99;74.30
68380;BME280;57711;53.196;19.638;2023-01-31T10:50:39;99594.34;;;3.02;74.18
68380;BME280;57711;53.196;19.638;2023-01-31T10:56:06;99589.65;;;3.06;74.26
68380;BME280;57711;53.196;19.638;2023-01-31T10:58:35;99588.91;;;3.08;74.16
68380;BME280;57711;53.196;19.638;2023-01-31T11:01:06;99587.61;;;3.12;74.04
68380;BME280;57711;53.196;19.638;2023-01-31T11:03:38;99583.87;;;3.12;74.17
68380;BME280;57711;53.196;19.638;2023-01-31T11:06:05;99580.05;;;3.10;74.02
68380;BME280;57711;53.196;19.638;2023-01-31T11:08:41;99584.45;;;3.08;74.13
68380;BME280;57711;53.196;19.638;2023-01-31T11:11:12;99585.58;;;3.08;74.10
68380;BME280;57711;53.196;19.638;2023-01-31T11:13:40;99582.77;;;3.10;74.04
68380;BME280;57711;53.196;19.638;2023-01-31T11:16:09;99579.66;;;3.10;74.09
68380;BME280;57711;53.196;19.638;2023-01-31T11:18:44;99574.75;;;3.09;73.85
68380;BME280;57711;53.196;19.638;2023-01-31T11:21:21;99575.89;;;3.08;74.13
68380;BME280;57711;53.196;19.638;2023-01-31T11:23:50;99571.64;;;3.10;74.12
68380;BME280;57711;53.196;19.638;2023-01-31T11:26:38;99569.57;;;3.12;73.99
68380;BME280;57711;53.196;19.638;2023-01-31T11:29:23;99568.73;;;3.13;73.80
68380;BME280;57711;53.196;19.638;2023-01-31T11:31:53;99569.39;;;3.15;74.01
68380;BME280;57711;53.196;19.638;2023-01-31T11:34:26;99563.66;;;3.15;74.00
68380;BME280;57711;53.196;19.638;2023-01-31T11:37:13;99567.98;;;3.14;73.88
68380;BME280;57711;53.196;19.638;2023-01-31T11:39:40;99573.80;;;3.13;73.88
68380;BME280;57711;53.196;19.638;2023-01-31T11:42:13;99576.34;;;3.14;73.93
68380;BME280;57711;53.196;19.638;2023-01-31T11:44:54;99567.58;;;3.17;73.72
68380;BME280;57711;53.196;19.638;2023-01-31T11:47:30;99569.05;;;3.16;73.80
68380;BME280;57711;53.196;19.638;2023-01-31T11:50:00;99572.90;;;3.15;73.79
68380;BME280;57711;53.196;19.638;2023-01-31T11:52:31;99569.25;;;3.14;73.66
68380;BME280;57711;53.196;19.638;2023-01-31T11:55:05;99558.53;;;3.14;73.78
68380;BME280;57711;53.196;19.638;2023-01-31T11:57:36;99558.90;;;3.18;73.57
68380;BME280;57711;53.196;19.638;2023-01-31T12:00:20;99546.91;;;3.19;73.61
68380;BME280;57711;53.196;19.638;2023-01-31T12:05:40;99542.23;;;3.14;73.56
68380;BME280;57711;53.196;19.638;2023-01-31T12:11:30;99528.38;;;3.11;73.62
68380;BME280;57711;53.196;19.638;2023-01-31T12:14:14;99525.52;;;3.08;73.43
68380;BME280;57711;53.196;19.638;2023-01-31T12:16:46;99529.02;;;3.07;73.52
68380;BME280;57711;53.196;19.638;2023-01-31T12:19:20;99531.82;;;3.05;73.48
68380;BME280;57711;53.196;19.638;2023-01-31T12:24:52;99537.70;;;3.00;73.41
68380;BME280;57711;53.196;19.638;2023-01-31T12:27:52;99533.11;;;2.96;73.53
68380;BME280;57711;53.196;19.638;2023-01-31T12:30:33;99532.44;;;2.98;73.41
68380;BME280;57711;53.196;19.638;2023-01-31T12:38:55;99524.23;;;2.96;73.33
68380;BME280;57711;53.196;19.638;2023-01-31T12:41:36;99519.87;;;2.92;73.39
68380;BME280;57711;53.196;19.638;2023-01-31T12:57:55;99511.34;;;2.91;73.25
68380;BME280;57711;53.196;19.638;2023-01-31T13:06:14;99509.33;;;2.92;73.20
68380;BME280;57711;53.196;19.638;2023-01-31T13:08:55;99508.31;;;2.88;73.19
68380;BME280;57711;53.196;19.638;2023-01-31T13:11:39;99509.22;;;2.86;73.22
68380;BME280;57711;53.196;19.638;2023-01-31T13:14:16;99509.05;;;2.83;73.04
68380;BME280;57711;53.196;19.638;2023-01-31T13:16:45;99506.83;;;2.82;73.13
68380;BME280;57711;53.196;19.638;2023-01-31T13:19:28;99502.36;;;2.81;73.10
68380;BME280;57711;53.196;19.638;2023-01-31T13:22:02;99506.94;;;2.80;73.07
68380;BME280;57711;53.196;19.638;2023-01-31T13:24:43;99502.83;;;2.77;73.11
68380;BME280;57711;53.196;19.638;2023-01-31T13:27:20;99508.27;;;2.76;73.14
68380;BME280;57711;53.196;19.638;2023-01-31T13:29:59;99509.96;;;2.75;73.20
68380;BME280;57711;53.196;19.638;2023-01-31T13:32:32;99506.19;;;2.75;73.06
68380;BME280;57711;53.196;19.638;2023-01-31T13:35:14;99499.59;;;2.75;72.99
68380;BME280;57711;53.196;19.638;2023-01-31T13:37:45;99503.29;;;2.76;73.05
68380;BME280;57711;53.196;19.638;2023-01-31T13:40:19;99499.09;;;2.75;73.06
68380;BME280;57711;53.196;19.638;2023-01-31T13:42:48;99497.20;;;2.73;73.04
68380;BME280;57711;53.196;19.638;2023-01-31T13:45:31;99496.73;;;2.70;72.90
68380;BME280;57711;53.196;19.638;2023-01-31T13:48:15;99499.72;;;2.68;72.84
68380;BME280;57711;53.196;19.638;2023-01-31T13:51:03;99497.11;;;2.70;72.99
68380;BME280;57711;53.196;19.638;2023-01-31T13:53:47;99490.16;;;2.70;72.96
68380;BME280;57711;53.196;19.638;2023-01-31T13:56:28;99487.05;;;2.68;72.93
68380;BME280;57711;53.196;19.638;2023-01-31T13:58:57;99484.12;;;2.67;72.97
68380;BME280;57711;53.196;19.638;2023-01-31T14:01:29;99477.11;;;2.64;72.89
68380;BME280;57711;53.196;19.638;2023-01-31T14:07:15;99459.36;;;2.66;72.92
68380;BME280;57711;53.196;19.638;2023-01-31T14:12:33;99448.95;;;2.67;72.74
68380;BME280;57711;53.196;19.638;2023-01-31T14:15:01;99451.32;;;2.66;72.77
68380;BME280;57711;53.196;19.638;2023-01-31T14:22:26;99447.01;;;2.61;72.69
68380;BME280;57711;53.196;19.638;2023-01-31T14:40:26;99448.58;;;2.51;72.55
68380;BME280;57711;53.196;19.638;2023-01-31T14:57:16;99435.74;;;2.46;72.56
68380;BME280;57711;53.196;19.638;2023-01-31T15:00:00;99433.04;;;2.49;72.57
68380;BME280;57711;53.196;19.638;2023-01-31T15:05:02;99431.13;;;2.51;72.53
68380;BME280;57711;53.196;19.638;2023-01-31T15:07:31;99431.25;;;2.49;72.55
68380;BME280;57711;53.196;19.638;2023-01-31T15:09:58;99430.78;;;2.45;72.54
68380;BME280;57711;53.196;19.638;2023-01-31T15:15:24;99424.33;;;2.38;72.43
68380;BME280;57711;53.196;19.638;2023-01-31T15:17:53;99421.36;;;2.35;72.42
68380;BME280;57711;53.196;19.638;2023-01-31T15:20:24;99414.05;;;2.30;72.28
68380;BME280;57711;53.196;19.638;2023-01-31T15:22:57;99414.98;;;2.26;72.38
68380;BME280;57711;53.196;19.638;2023-01-31T15:28:01;99411.73;;;2.21;72.46
68380;BME280;57711;53.196;19.638;2023-01-31T15:30:32;99411.11;;;2.20;72.54
68380;BME280;57711;53.196;19.638;2023-01-31T15:33:05;99405.45;;;2.19;72.35
68380;BME280;57711;53.196;19.638;2023-01-31T15:35:45;99403.67;;;2.19;72.40
68380;BME280;57711;53.196;19.638;2023-01-31T15:38:31;99397.27;;;2.19;72.35
68380;BME280;57711;53.196;19.638;2023-01-31T15:41:15;99389.36;;;2.17;72.46
68380;BME280;57711;53.196;19.638;2023-01-31T15:43:45;99392.16;;;2.15;72.39